Time;durP1;ratioP1;P1;durP2;ratioP2;P2;SDS_P1;SDS_P2;PMS_P1;PMS_P2;Temp;Humidity;BMP_temperature;BMP_pressure;BME280_temperature;BME280_humidity;BME280_pressure;Samples;Min_cycle;Max_cycle;Signal;HPM_P1;HPM_P2
2022/06/29 00:00:27;;;;;;;3.87;2.70;;;;;;;24.06;64.81;98749.13;4364298;32;20122;-74
2022/06/29 00:02:55;;;;;;;4.30;2.92;;;;;;;23.96;65.13;98740.81;4364018;32;20086;-74
2022/06/29 00:05:24;;;;;;;3.67;3.10;;;;;;;23.75;66.02;98734.84;4364197;32;20090;-74
2022/06/29 00:07:53;;;;;;;5.20;2.78;;;;;;;23.70;66.09;98732.03;4364099;32;20099;-74
2022/06/29 00:10:22;;;;;;;4.68;3.60;;;;;;;23.62;66.16;98733.16;4358452;32;20117;-75
2022/06/29 00:12:49;;;;;;;7.30;3.30;;;;;;;23.69;65.94;98735.75;4350398;32;20087;-74
2022/06/29 00:15:18;;;;;;;10.68;3.78;;;;;;;23.76;65.68;98741.03;4363894;32;20150;-75
2022/06/29 00:17:46;;;;;;;5.35;3.22;;;;;;;23.80;65.48;98729.66;4363912;32;20734;-74
2022/06/29 00:20:14;;;;;;;5.37;3.17;;;;;;;23.88;65.21;98731.22;4363764;32;20102;-74
2022/06/29 00:22:42;;;;;;;5.47;3.00;;;;;;;23.88;65.12;98733.91;4363683;32;20122;-74
2022/06/29 00:25:10;;;;;;;5.57;3.22;;;;;;;23.92;65.00;98730.56;4363707;32;20118;-74
2022/06/29 00:27:38;;;;;;;5.90;3.25;;;;;;;23.95;64.98;98731.94;4363751;32;20119;-74
2022/06/29 00:30:06;;;;;;;8.50;3.62;;;;;;;23.92;65.28;98725.22;4363666;32;20389;-74
2022/06/29 00:32:34;;;;;;;3.22;2.92;;;;;;;24.05;64.91;98726.06;4363428;32;20134;-74
2022/06/29 00:35:01;;;;;;;4.97;3.12;;;;;;;24.08;64.72;98715.72;4363554;32;20428;-75
2022/06/29 00:37:28;;;;;;;7.25;4.57;;;;;;;24.12;64.54;98713.44;4363642;32;20103;-74
2022/06/29 00:39:56;;;;;;;7.82;3.65;;;;;;;24.15;64.45;98706.78;4363489;32;20090;-75
2022/06/29 00:42:24;;;;;;;3.87;3.33;;;;;;;24.07;64.60;98700.72;4363876;32;20502;-74
2022/06/29 00:44:51;;;;;;;6.85;3.05;;;;;;;24.05;64.63;98707.34;4363411;32;20079;-74
2022/06/29 00:47:18;;;;;;;7.15;3.20;;;;;;;24.10;64.51;98702.12;4363523;32;20141;-75
2022/06/29 00:49:45;;;;;;;13.60;3.17;;;;;;;24.07;64.71;98707.94;4363462;32;20411;-74
2022/06/29 00:52:15;;;;;;;3.85;2.85;;;;;;;24.05;64.60;98718.03;4363394;32;20433;-75
2022/06/29 00:54:47;;;;;;;4.10;3.10;;;;;;;24.02;64.63;98711.28;4363203;32;20466;-74
2022/06/29 00:57:21;;;;;;;5.03;3.00;;;;;;;24.04;64.48;98708.38;4350395;32;20150;-74
2022/06/29 00:59:51;;;;;;;3.95;2.92;;;;;;;24.02;64.45;98697.91;4363283;32;82383;-74
2022/06/29 01:02:21;;;;;;;4.45;3.25;;;;;;;24.04;64.24;98706.53;4365227;32;20091;-74
2022/06/29 01:04:50;;;;;;;8.77;3.40;;;;;;;24.06;64.13;98698.28;4365391;32;20118;-75
2022/06/29 01:07:23;;;;;;;7.35;3.12;;;;;;;24.09;64.05;98697.81;4365287;32;20099;-74
2022/06/29 01:09:51;;;;;;;3.50;3.00;;;;;;;24.12;63.76;98696.53;4365258;32;20492;-74
2022/06/29 01:12:18;;;;;;;5.45;3.00;;;;;;;24.18;63.44;98695.63;4358906;32;20099;-74
2022/06/29 01:14:47;;;;;;;5.32;3.28;;;;;;;24.23;63.04;98688.56;4365195;32;20113;-74
2022/06/29 01:17:15;;;;;;;6.35;3.60;;;;;;;24.25;62.98;98701.72;4365019;32;20118;-74
2022/06/29 01:19:43;;;;;;;6.60;3.00;;;;;;;24.30;62.85;98703.69;4365221;32;20507;-74
2022/06/29 01:22:19;;;;;;;6.25;2.92;;;;;;;24.29;62.88;98710.12;4365047;32;20472;-74
2022/06/29 01:24:48;;;;;;;8.13;3.10;;;;;;;24.37;62.83;98710.59;4365211;32;20177;-74
2022/06/29 01:27:17;;;;;;;3.70;3.25;;;;;;;24.30;62.96;98709.06;4365254;32;20782;-74
2022/06/29 01:29:44;;;;;;;3.83;3.05;;;;;;;24.33;62.94;98700.56;4365202;32;20126;-74
2022/06/29 01:32:12;;;;;;;7.90;3.53;;;;;;;24.35;62.92;98699.31;4364948;32;20162;-75
2022/06/29 01:34:40;;;;;;;4.78;3.05;;;;;;;24.29;63.16;98697.53;4364925;32;20109;-74
2022/06/29 01:37:07;;;;;;;4.57;2.80;;;;;;;24.38;62.78;98696.16;4364996;32;20095;-74
2022/06/29 01:39:35;;;;;;;6.75;3.05;;;;;;;24.41;62.70;98685.00;4365092;32;20237;-75
2022/06/29 01:42:03;;;;;;;6.55;3.20;;;;;;;24.37;63.00;98688.38;4365021;32;20095;-74
2022/06/29 01:44:31;;;;;;;5.57;4.50;;;;;;;24.36;63.08;98682.19;4365040;32;20552;-74
2022/06/29 01:46:58;;;;;;;3.35;2.97;;;;;;;24.42;62.69;98677.78;4365118;32;20092;-74
2022/06/29 01:49:26;;;;;;;5.10;3.47;;;;;;;24.44;62.66;98678.38;4365061;32;20099;-74
2022/06/29 01:51:55;;;;;;;4.20;3.25;;;;;;;24.45;62.62;98674.63;4365009;32;20103;-74
2022/06/29 01:54:22;;;;;;;5.50;3.30;;;;;;;24.51;62.41;98676.41;4364844;32;20109;-75
2022/06/29 01:56:49;;;;;;;5.35;3.20;;;;;;;24.54;62.22;98669.75;4364936;32;20098;-74
2022/06/29 01:59:16;;;;;;;5.18;3.28;;;;;;;24.52;62.26;98670.00;4364897;32;20118;-74
2022/06/29 02:01:46;;;;;;;5.65;3.20;;;;;;;24.55;62.30;98677.56;4364863;32;20095;-74
2022/06/29 02:04:13;;;;;;;4.60;3.45;;;;;;;24.48;62.37;98674.16;4364921;32;20154;-74
2022/06/29 02:06:41;;;;;;;4.32;3.20;;;;;;;24.51;62.45;98672.91;4364854;32;20431;-74
2022/06/29 02:09:08;;;;;;;6.37;3.28;;;;;;;24.48;62.75;98673.38;4364713;32;20099;-74
2022/06/29 02:11:35;;;;;;;3.90;3.42;;;;;;;24.34;63.41;98662.03;4364532;32;20095;-74
2022/06/29 02:14:03;;;;;;;4.43;3.33;;;;;;;24.19;64.18;98663.28;4364835;32;20552;-74
2022/06/29 02:16:30;;;;;;;3.58;3.28;;;;;;;24.12;64.75;98665.25;4351502;32;20107;-74
2022/06/29 02:18:58;;;;;;;4.65;3.70;;;;;;;24.12;64.97;98667.09;4364739;32;20664;-74
2022/06/29 02:21:25;;;;;;;4.18;3.47;;;;;;;23.98;65.64;98669.16;4364746;32;20079;-74
2022/06/29 02:23:52;;;;;;;6.40;3.72;;;;;;;23.92;65.84;98665.50;4364799;32;20095;-74
2022/06/29 02:26:19;;;;;;;7.60;4.22;;;;;;;23.97;65.75;98665.66;4364681;32;20186;-74
2022/06/29 02:28:46;;;;;;;5.97;3.65;;;;;;;23.91;65.97;98664.69;4364746;32;20099;-74
2022/06/29 02:36:45;;;;;;;4.87;3.80;;;;;;;23.87;66.38;98655.47;4364752;32;20150;-74
2022/06/29 02:39:13;;;;;;;7.57;4.50;;;;;;;23.96;65.96;98655.19;4364660;32;20099;-74
2022/06/29 02:41:40;;;;;;;6.47;4.15;;;;;;;24.11;65.39;98660.94;4364632;32;20100;-74
2022/06/29 02:44:07;;;;;;;4.43;4.03;;;;;;;24.21;65.02;98653.19;4364673;32;20389;-74
2022/06/29 02:46:34;;;;;;;7.55;4.45;;;;;;;24.33;64.58;98661.25;4364484;32;20166;-75
2022/06/29 02:49:02;;;;;;;5.62;4.20;;;;;;;24.41;64.22;98658.22;4364737;32;20086;-74
2022/06/29 02:51:29;;;;;;;7.85;4.00;;;;;;;24.44;64.20;98659.63;4364494;32;20094;-74
2022/06/29 02:53:57;;;;;;;9.38;4.20;;;;;;;24.43;64.41;98658.00;4364597;32;20126;-74
2022/06/29 02:56:24;;;;;;;6.05;3.72;;;;;;;24.41;64.59;98655.53;4364685;32;20162;-74
2022/06/29 02:58:51;;;;;;;5.30;3.55;;;;;;;24.32;64.98;98650.75;4364584;32;20107;-74
2022/06/29 03:01:18;;;;;;;5.05;4.12;;;;;;;24.30;64.93;98655.50;4364613;32;20129;-74
2022/06/29 03:03:46;;;;;;;4.93;3.70;;;;;;;24.23;65.28;98667.13;4364508;32;20113;-74
2022/06/29 03:06:13;;;;;;;5.70;3.35;;;;;;;24.29;65.35;98661.94;4364506;32;20091;-74
2022/06/29 03:08:40;;;;;;;7.25;3.90;;;;;;;24.31;65.25;98657.16;4364584;32;20115;-74
2022/06/29 03:11:07;;;;;;;5.18;3.85;;;;;;;24.25;65.23;98661.56;4364360;32;20095;-74
2022/06/29 03:13:34;;;;;;;7.32;4.03;;;;;;;24.21;65.37;98661.22;4364455;32;20133;-74
2022/06/29 03:16:02;;;;;;;6.87;3.92;;;;;;;24.19;65.30;98663.28;4364394;32;20142;-74
2022/06/29 03:18:29;;;;;;;6.12;3.90;;;;;;;24.17;65.24;98662.69;4364422;32;20095;-74
2022/06/29 03:20:56;;;;;;;4.53;3.85;;;;;;;24.23;64.91;98661.78;4363740;32;20110;-74
2022/06/29 03:23:24;;;;;;;6.47;3.83;;;;;;;24.22;64.74;98664.69;4350993;32;20103;-74
2022/06/29 03:25:51;;;;;;;7.00;3.90;;;;;;;24.30;64.52;98655.50;4364451;32;20103;-74
2022/06/29 03:28:18;;;;;;;5.18;3.67;;;;;;;24.34;64.58;98664.72;4364446;32;20158;-74
2022/06/29 03:30:45;;;;;;;7.20;3.92;;;;;;;24.41;64.01;98662.75;4364387;32;20110;-74
2022/06/29 03:33:12;;;;;;;7.47;3.60;;;;;;;24.44;64.00;98667.66;4364493;32;20074;-74
2022/06/29 03:35:40;;;;;;;5.82;3.47;;;;;;;24.25;64.58;98664.22;4350876;32;20102;-74
2022/06/29 03:38:07;;;;;;;9.13;3.80;;;;;;;24.38;63.81;98673.94;4364308;32;20239;-74
2022/06/29 03:40:34;;;;;;;8.02;3.65;;;;;;;24.37;63.96;98672.28;4364216;32;20742;-74
2022/06/29 03:43:01;;;;;;;5.18;3.75;;;;;;;24.36;63.95;98674.16;4364256;32;20115;-74
2022/06/29 03:45:29;;;;;;;5.05;4.07;;;;;;;24.35;63.60;98671.72;4364467;32;20130;-74
2022/06/29 03:47:56;;;;;;;6.57;4.05;;;;;;;24.37;63.77;98675.78;4350923;32;20133;-74
2022/06/29 03:50:23;;;;;;;7.15;4.20;;;;;;;24.25;63.99;98681.13;4364251;32;20087;-74
2022/06/29 03:52:50;;;;;;;5.50;4.40;;;;;;;24.29;64.20;98680.66;4364247;32;20433;-74
2022/06/29 03:55:17;;;;;;;10.05;4.55;;;;;;;24.16;64.50;98677.13;4364095;32;20102;-74
2022/06/29 03:57:44;;;;;;;7.15;4.53;;;;;;;24.21;64.28;98671.06;4364301;32;20145;-74
2022/06/29 04:00:12;;;;;;;6.47;4.80;;;;;;;24.21;64.31;98663.03;4364005;32;20103;-74
2022/06/29 04:02:40;;;;;;;8.27;4.43;;;;;;;24.22;64.37;98652.09;4363861;32;20114;-74
2022/06/29 04:05:08;;;;;;;8.05;4.62;;;;;;;24.22;64.42;98656.66;4364026;32;20579;-74
2022/06/29 04:07:35;;;;;;;8.25;4.68;;;;;;;24.29;64.12;98659.25;4363879;32;20099;-75
2022/06/29 04:10:03;;;;;;;6.70;4.45;;;;;;;24.20;64.22;98667.59;4364014;32;20090;-74
2022/06/29 04:12:33;;;;;;;7.12;5.30;;;;;;;24.24;64.00;98659.94;4363689;32;20079;-74
2022/06/29 04:15:00;;;;;;;6.37;4.50;;;;;;;24.25;63.78;98662.38;4363689;32;20095;-74
2022/06/29 04:17:28;;;;;;;10.15;5.25;;;;;;;24.35;63.58;98674.41;4363809;32;20121;-74
2022/06/29 04:19:55;;;;;;;7.78;4.68;;;;;;;24.32;63.93;98670.31;4363829;32;20538;-74
2022/06/29 04:22:25;;;;;;;9.20;4.75;;;;;;;24.56;63.29;98673.03;4363837;32;20091;-74
2022/06/29 04:24:52;;;;;;;6.10;5.20;;;;;;;24.57;62.93;98671.97;4363870;32;20197;-74
2022/06/29 04:27:20;;;;;;;8.88;4.37;;;;;;;24.40;63.29;98677.19;4363646;32;20103;-74
2022/06/29 04:29:47;;;;;;;7.72;4.82;;;;;;;24.54;63.21;98672.44;4363701;32;20079;-74
2022/06/29 04:32:15;;;;;;;9.07;4.72;;;;;;;24.69;62.92;98682.75;4351265;32;20437;-74
2022/06/29 04:34:42;;;;;;;7.28;4.75;;;;;;;24.70;62.78;98681.72;4365426;32;20114;-74
2022/06/29 04:37:09;;;;;;;7.30;4.75;;;;;;;24.68;62.60;98679.25;4365534;32;20125;-75
2022/06/29 04:39:37;;;;;;;11.27;5.18;;;;;;;24.80;62.21;98679.28;4365444;32;20193;-74
2022/06/29 04:42:04;;;;;;;14.20;5.07;;;;;;;24.99;61.62;98669.25;4365480;32;20153;-74
2022/06/29 04:44:31;;;;;;;7.72;5.18;;;;;;;24.81;61.83;98678.22;4365348;32;20362;-74
2022/06/29 04:46:58;;;;;;;5.22;4.70;;;;;;;24.94;61.72;98672.63;4365341;32;20103;-74
2022/06/29 04:49:26;;;;;;;6.72;4.82;;;;;;;24.85;61.80;98679.38;4365509;32;20477;-74
2022/06/29 04:51:53;;;;;;;8.25;5.70;;;;;;;25.06;61.57;98679.88;4365381;32;20121;-74
2022/06/29 04:54:20;;;;;;;7.93;4.90;;;;;;;25.13;60.62;98678.69;4365195;32;20087;-74
2022/06/29 04:56:47;;;;;;;5.80;4.80;;;;;;;25.06;61.05;98679.88;4365513;32;20091;-74
2022/06/29 04:59:15;;;;;;;11.10;5.25;;;;;;;25.18;60.45;98683.34;4365238;32;20087;-74
2022/06/29 05:01:43;;;;;;;8.43;5.45;;;;;;;25.23;60.34;98677.28;4365380;32;20098;-74
2022/06/29 05:04:10;;;;;;;8.80;5.30;;;;;;;25.21;60.54;98677.50;4365279;32;20182;-74
2022/06/29 05:06:37;;;;;;;13.25;5.20;;;;;;;25.47;59.96;98676.22;4365606;32;20490;-74
2022/06/29 05:09:05;;;;;;;9.07;5.03;;;;;;;25.65;59.08;98675.22;4365238;32;20433;-74
2022/06/29 05:11:32;;;;;;;13.10;5.82;;;;;;;25.48;59.43;98671.66;4365101;32;20125;-74
2022/06/29 05:14:00;;;;;;;9.18;4.95;;;;;;;25.65;58.97;98682.47;4365211;32;20459;-74
2022/06/29 05:16:27;;;;;;;9.20;4.78;;;;;;;25.85;58.79;98676.69;4365169;32;20150;-74
2022/06/29 05:18:55;;;;;;;9.43;5.25;;;;;;;25.98;58.21;98675.56;4365041;32;20095;-74
2022/06/29 05:21:22;;;;;;;9.60;5.20;;;;;;;25.99;58.31;98683.41;4365305;32;20430;-75
2022/06/29 05:23:50;;;;;;;9.60;4.70;;;;;;;26.18;57.26;98677.88;4365158;32;20099;-74
2022/06/29 05:26:17;;;;;;;6.00;5.03;;;;;;;26.34;57.07;98687.84;4365204;32;20095;-74
2022/06/29 05:28:44;;;;;;;9.15;4.60;;;;;;;26.36;56.84;98685.72;4365106;32;20114;-74
2022/06/29 05:31:11;;;;;;;8.07;4.97;;;;;;;26.59;56.72;98688.47;4365131;32;20254;-74
2022/06/29 05:33:38;;;;;;;8.25;5.10;;;;;;;26.41;56.02;98690.34;4365274;32;20099;-74
2022/06/29 05:36:08;;;;;;;7.30;4.47;;;;;;;26.62;56.25;98686.12;4365010;32;20099;-74
2022/06/29 05:38:36;;;;;;;6.20;5.00;;;;;;;26.52;55.98;98685.97;4364983;32;20114;-74
2022/06/29 05:41:04;;;;;;;7.72;4.75;;;;;;;26.45;56.07;98683.44;4365121;32;20174;-74
2022/06/29 05:43:31;;;;;;;8.77;4.80;;;;;;;26.45;56.08;98677.22;4364539;32;20103;-74
2022/06/29 05:45:59;;;;;;;8.45;4.97;;;;;;;26.66;55.31;98673.88;4364955;32;20588;-74
2022/06/29 05:48:27;;;;;;;5.30;4.70;;;;;;;26.61;55.49;98671.06;4365028;32;20113;-74
2022/06/29 05:50:54;;;;;;;7.43;4.85;;;;;;;26.49;56.16;98670.31;4365255;32;20101;-74
2022/06/29 05:56:52;;;;;;;6.80;5.30;;;;;;;26.53;55.47;98671.47;4364933;32;20244;-74
2022/06/29 05:59:19;;;;;;;6.90;5.32;;;;;;;26.72;55.30;98670.19;4358866;32;20531;-74
2022/06/29 06:01:46;;;;;;;8.02;4.90;;;;;;;26.70;55.22;98669.63;4364872;32;20550;-74
2022/06/29 06:04:14;;;;;;;9.65;5.18;;;;;;;27.02;54.08;98663.62;4364855;32;20162;-74
2022/06/29 06:06:41;;;;;;;5.87;5.03;;;;;;;27.00;54.58;98665.75;4364818;32;20445;-74
2022/06/29 06:09:09;;;;;;;7.80;5.05;;;;;;;27.15;54.40;98661.69;4364731;32;20174;-74
2022/06/29 06:11:36;;;;;;;7.30;4.47;;;;;;;27.22;53.71;98667.66;4364353;32;20083;-74
2022/06/29 06:14:04;;;;;;;7.62;4.68;;;;;;;27.22;53.55;98659.59;4364755;32;20117;-74
2022/06/29 06:16:31;;;;;;;8.05;4.45;;;;;;;27.26;53.83;98661.53;4364948;32;20249;-75
2022/06/29 06:19:08;;;;;;;7.10;5.43;;;;;;;27.40;53.92;98662.03;4364834;32;20136;-74
2022/06/29 06:21:35;;;;;;;13.52;4.97;;;;;;;27.67;53.03;98655.88;4364732;32;20117;-74
2022/06/29 06:24:03;;;;;;;8.90;4.90;;;;;;;27.75;52.10;98658.16;4364782;32;20468;-75
2022/06/29 06:26:31;;;;;;;5.20;4.65;;;;;;;27.71;52.27;98662.41;4364973;32;20449;-75
2022/06/29 06:28:58;;;;;;;9.38;5.10;;;;;;;27.60;52.44;98658.78;4364695;32;20165;-74
2022/06/29 06:31:26;;;;;;;10.32;5.12;;;;;;;27.71;52.38;98658.91;4351398;32;20090;-74
2022/06/29 06:33:54;;;;;;;7.62;4.53;;;;;;;27.85;52.02;98670.09;4364472;32;20208;-74
2022/06/29 06:36:22;;;;;;;7.18;4.72;;;;;;;28.04;51.90;98663.31;4364550;32;20099;-74
2022/06/29 06:38:49;;;;;;;6.80;4.75;;;;;;;28.08;51.65;98669.81;4364748;32;20117;-74
2022/06/29 06:41:23;;;;;;;9.05;4.70;;;;;;;28.01;50.91;98666.53;4364599;32;20444;-74
2022/06/29 06:43:54;;;;;;;7.68;5.28;;;;;;;27.97;51.43;98665.41;4364798;32;20079;-74
2022/06/29 06:46:22;;;;;;;5.20;4.40;;;;;;;28.10;51.28;98659.59;4364640;32;20113;-74
2022/06/29 06:48:52;;;;;;;7.12;4.50;;;;;;;28.43;50.79;98660.41;4364660;32;20083;-75
2022/06/29 06:51:21;;;;;;;9.68;4.70;;;;;;;28.50;50.18;98658.31;4364840;32;20079;-74
2022/06/29 06:53:48;;;;;;;5.22;4.60;;;;;;;28.38;50.80;98649.59;4364568;32;20523;-74
2022/06/29 06:56:16;;;;;;;10.02;5.00;;;;;;;28.65;50.45;98649.56;4363412;32;20157;-75
2022/06/29 06:58:43;;;;;;;8.68;5.07;;;;;;;28.78;49.60;98651.03;4364588;32;20079;-74
2022/06/29 07:01:17;;;;;;;10.35;4.53;;;;;;;28.85;49.89;98659.69;4364857;32;20122;-74
2022/06/29 07:03:45;;;;;;;13.95;5.15;;;;;;;28.92;48.84;98653.25;4364448;32;20091;-74
2022/06/29 07:06:12;;;;;;;9.13;5.05;;;;;;;29.06;49.64;98656.31;4364539;32;20087;-75
2022/06/29 07:08:40;;;;;;;6.00;4.72;;;;;;;29.22;49.09;98638.34;4364612;32;20150;-75
2022/06/29 07:11:07;;;;;;;8.82;5.20;;;;;;;29.13;49.35;98644.22;4350937;32;20630;-74
2022/06/29 07:13:35;;;;;;;7.03;4.70;;;;;;;29.19;48.90;98635.06;4351122;32;20452;-75
2022/06/29 07:16:04;;;;;;;7.12;4.65;;;;;;;29.40;49.70;98634.38;4364299;32;20137;-75
2022/06/29 07:18:33;;;;;;;13.60;5.72;;;;;;;29.50;48.39;98629.81;4364403;32;20087;-75
2022/06/29 07:21:01;;;;;;;8.85;4.85;;;;;;;29.46;48.04;98627.91;4350916;32;20155;-75
2022/06/29 07:23:28;;;;;;;12.60;5.20;;;;;;;29.67;47.92;98631.50;4364321;32;20456;-75
2022/06/29 07:29:26;;;;;;;11.48;4.78;;;;;;;29.65;47.00;98636.37;4364354;32;20406;-75
2022/06/29 07:31:54;;;;;;;6.70;4.45;;;;;;;29.90;46.42;98641.03;4364302;32;20091;-75
2022/06/29 07:34:21;;;;;;;6.47;4.43;;;;;;;30.16;46.92;98636.50;4364265;32;20102;-74
2022/06/29 07:36:48;;;;;;;5.60;3.92;;;;;;;30.14;44.72;98640.53;4364257;32;20110;-74
2022/06/29 07:39:15;;;;;;;7.47;4.30;;;;;;;30.50;42.11;98637.88;4364164;32;20095;-75
2022/06/29 07:41:42;;;;;;;6.68;4.07;;;;;;;30.78;41.54;98636.47;4364129;32;20083;-75
2022/06/29 07:44:10;;;;;;;8.95;3.87;;;;;;;30.68;42.79;98634.59;4364335;32;20166;-74
2022/06/29 07:46:37;;;;;;;9.05;4.47;;;;;;;30.82;41.44;98629.44;4364439;32;20139;-74
2022/06/29 07:49:04;;;;;;;5.95;3.67;;;;;;;30.92;42.24;98629.41;4364056;32;20531;-74
2022/06/29 07:51:31;;;;;;;5.43;3.70;;;;;;;31.06;41.03;98639.69;4364058;32;20090;-74
2022/06/29 07:53:59;;;;;;;7.03;4.28;;;;;;;30.94;41.81;98640.75;4364142;32;20103;-74
2022/06/29 07:56:26;;;;;;;3.72;3.37;;;;;;;31.21;40.51;98644.25;4350688;32;20107;-75
2022/06/29 07:58:53;;;;;;;11.15;4.28;;;;;;;31.16;39.21;98631.56;4364080;32;20109;-74
2022/06/29 08:01:20;;;;;;;5.47;4.30;;;;;;;31.14;40.42;98633.69;4363883;32;20498;-75
2022/06/29 08:03:48;;;;;;;5.25;3.95;;;;;;;31.27;40.96;98632.31;4364030;32;20098;-75
2022/06/29 08:06:15;;;;;;;5.22;3.50;;;;;;;31.24;39.64;98636.37;4363737;32;20086;-75
2022/06/29 08:08:43;;;;;;;6.95;4.53;;;;;;;31.30;40.17;98632.56;4363982;32;20149;-75
2022/06/29 08:11:11;;;;;;;6.85;4.50;;;;;;;31.46;40.25;98618.97;4363662;32;20091;-74
2022/06/29 08:13:38;;;;;;;7.72;4.55;;;;;;;31.40;40.35;98626.31;4363827;32;20086;-75
2022/06/29 08:16:09;;;;;;;6.18;4.75;;;;;;;31.21;40.86;98628.00;4363849;32;20091;-75
2022/06/29 08:18:37;;;;;;;8.75;4.80;;;;;;;31.61;40.85;98635.19;4363917;32;20114;-75
2022/06/29 08:21:04;;;;;;;6.05;4.03;;;;;;;31.67;40.42;98638.66;4363880;32;20090;-74
2022/06/29 08:23:32;;;;;;;7.97;4.90;;;;;;;31.67;39.92;98642.19;4363837;32;20517;-75
2022/06/29 08:25:59;;;;;;;7.53;4.35;;;;;;;31.82;40.49;98637.75;4363482;32;20103;-75
2022/06/29 08:28:46;;;;;;;9.48;4.85;;;;;;;31.91;39.69;98632.56;4363707;32;20481;-75
2022/06/29 08:31:13;;;;;;;8.25;4.55;;;;;;;31.97;39.05;98634.13;4363568;32;20087;-75
2022/06/29 08:33:42;;;;;;;7.03;4.35;;;;;;;32.08;39.14;98632.16;4363564;32;20159;-75
2022/06/29 08:36:09;;;;;;;9.10;4.60;;;;;;;32.02;38.14;98618.66;4363443;32;20102;-75
2022/06/29 08:38:57;;;;;;;10.48;4.57;;;;;;;32.03;38.23;98620.25;4363502;32;20084;-75
2022/06/29 08:41:25;;;;;;;6.35;4.75;;;;;;;32.29;39.34;98625.50;4363730;32;20434;-74
2022/06/29 08:43:53;;;;;;;17.10;4.43;;;;;;;32.25;38.33;98623.66;4350205;32;20123;-75
2022/06/29 08:46:20;;;;;;;5.43;4.35;;;;;;;31.99;37.99;98630.06;4363443;32;20366;-75
2022/06/29 08:48:48;;;;;;;6.45;4.45;;;;;;;32.45;38.07;98631.63;4363294;32;20103;-74
2022/06/29 08:51:18;;;;;;;9.90;4.05;;;;;;;32.59;37.17;98623.63;4363451;32;20150;-74
2022/06/29 08:53:46;;;;;;;7.45;4.40;;;;;;;32.65;37.91;98627.13;4363331;32;20436;-74
2022/06/29 08:56:14;;;;;;;8.73;4.47;;;;;;;32.42;36.60;98626.78;4363232;32;20113;-75
2022/06/29 08:58:41;;;;;;;5.25;3.95;;;;;;;32.38;36.65;98626.53;4363237;32;20087;-75
2022/06/29 09:01:09;;;;;;;8.93;3.97;;;;;;;32.42;35.92;98628.69;4363259;32;20155;-74
2022/06/29 09:03:36;;;;;;;11.70;4.03;;;;;;;32.46;37.17;98627.84;4363107;32;20122;-74
2022/06/29 09:06:06;;;;;;;13.80;4.75;;;;;;;32.63;36.38;98624.69;4363089;32;20099;-74
2022/06/29 09:08:33;;;;;;;11.73;4.10;;;;;;;32.63;37.22;98616.56;4363317;32;20599;-75
2022/06/29 09:11:24;;;;;;;9.35;3.50;;;;;;;32.69;36.13;98623.56;4362870;32;20118;-74
2022/06/29 09:14:08;;;;;;;5.87;3.83;;;;;;;32.91;35.36;98619.53;4362930;32;20107;-74
2022/06/29 09:16:59;;;;;;;4.90;3.50;;;;;;;33.07;35.67;98622.91;4363084;32;20099;-75
2022/06/29 09:19:28;;;;;;;9.50;3.90;;;;;;;33.19;35.37;98614.31;4364499;32;20152;-74
2022/06/29 09:25:28;;;;;;;5.37;4.07;;;;;;;33.13;35.93;98607.34;4365243;32;20475;-74
2022/06/29 09:27:56;;;;;;;8.82;4.05;;;;;;;32.82;35.95;98615.84;4365047;32;20453;-74
2022/06/29 09:30:28;;;;;;;6.05;3.60;;;;;;;33.04;35.60;98613.44;4365036;32;20617;-75
2022/06/29 09:33:06;;;;;;;6.45;3.62;;;;;;;32.79;34.78;98608.28;4365257;32;20102;-75
2022/06/29 09:35:35;;;;;;;6.43;3.80;;;;;;;33.22;35.09;98621.94;4365009;32;20262;-75
2022/06/29 09:38:19;;;;;;;6.20;3.50;;;;;;;33.36;35.28;98611.97;4351485;32;20123;-74
2022/06/29 09:41:13;;;;;;;11.70;3.70;;;;;;;33.43;35.03;98606.19;4365032;32;20075;-75
2022/06/29 09:43:45;;;;;;;6.20;3.80;;;;;;;33.97;34.69;98604.09;4364972;32;20107;-74
2022/06/29 09:46:14;;;;;;;6.30;3.47;;;;;;;33.69;34.07;98598.50;4364973;32;20087;-75
2022/06/29 09:48:43;;;;;;;5.68;3.42;;;;;;;33.15;35.24;98591.59;4364999;32;20099;-75
2022/06/29 09:54:09;;;;;;;9.32;3.72;;;;;;;33.56;34.47;98602.75;4365232;32;20079;-74
2022/06/29 09:56:46;;;;;;;5.80;3.08;;;;;;;33.69;35.12;98594.97;4364787;32;20121;-74
2022/06/29 09:59:23;;;;;;;8.43;3.30;;;;;;;33.61;33.98;98601.84;4364948;32;20445;-75
2022/06/29 10:04:36;;;;;;;5.15;3.47;;;;;;;34.25;34.93;98590.63;4364940;32;20067;-75
2022/06/29 10:07:03;;;;;;;6.05;3.33;;;;;;;34.39;31.58;98593.38;4364812;32;20190;-74
2022/06/29 10:09:31;;;;;;;5.93;3.28;;;;;;;34.21;31.42;98589.56;4364985;32;20162;-75
2022/06/29 10:15:09;;;;;;;4.22;3.08;;;;;;;33.70;31.22;98581.06;4353624;32;20080;-75
2022/06/29 10:17:49;;;;;;;7.28;3.37;;;;;;;33.67;31.00;98575.44;4364886;32;20146;-74
2022/06/29 10:20:34;;;;;;;3.28;2.62;;;;;;;33.77;30.54;98576.13;4364870;32;20113;-75
2022/06/29 10:23:02;;;;;;;7.28;3.70;;;;;;;33.74;30.93;98570.47;4365048;32;20088;-75
2022/06/29 10:25:29;;;;;;;8.45;3.05;;;;;;;34.00;30.51;98568.16;4364773;32;20095;-75
2022/06/29 10:28:18;;;;;;;5.40;3.05;;;;;;;33.89;30.26;98566.72;4364646;32;20129;-75
2022/06/29 10:30:46;;;;;;;7.80;3.30;;;;;;;34.16;30.43;98562.47;4364677;32;20453;-75
2022/06/29 10:33:35;;;;;;;5.65;3.45;;;;;;;34.32;30.15;98552.16;4364681;32;20580;-75
2022/06/29 10:36:07;;;;;;;8.60;3.83;;;;;;;34.57;30.22;98559.84;4351050;32;20110;-75
2022/06/29 10:38:49;;;;;;;8.83;3.83;;;;;;;34.60;28.96;98553.00;4364833;32;20095;-74
2022/06/29 10:44:05;;;;;;;4.90;3.58;;;;;;;34.72;30.44;98556.03;4364783;32;20448;-75
2022/06/29 10:46:56;;;;;;;4.40;4.00;;;;;;;34.48;30.58;98545.34;4364579;32;20087;-75
2022/06/29 10:49:23;;;;;;;5.35;3.60;;;;;;;34.62;30.57;98540.69;4364550;32;20118;-75
2022/06/29 10:51:51;;;;;;;6.50;3.62;;;;;;;34.44;30.97;98542.41;4364655;32;20103;-75
2022/06/29 10:54:26;;;;;;;6.90;3.87;;;;;;;34.35;32.87;98546.91;4364658;32;20112;-74
2022/06/29 10:56:54;;;;;;;6.62;3.62;;;;;;;34.67;32.05;98534.34;4364743;32;20138;-75
2022/06/29 10:59:38;;;;;;;3.55;3.25;;;;;;;34.85;30.14;98526.44;4364645;32;20450;-74
2022/06/29 11:02:13;;;;;;;5.00;3.33;;;;;;;35.14;30.42;98529.63;4364483;32;20091;-74
2022/06/29 11:04:42;;;;;;;3.90;3.12;;;;;;;35.04;31.15;98527.12;4364974;32;20083;-75
2022/06/29 11:12:50;;;;;;;6.28;3.20;;;;;;;34.93;30.44;98515.63;4364272;32;20114;-75
2022/06/29 11:15:48;;;;;;;5.40;2.80;;;;;;;35.20;29.88;98511.22;4364392;32;20547;-74
2022/06/29 11:18:19;;;;;;;5.68;3.28;;;;;;;35.48;29.76;98503.03;4364330;32;20099;-75
2022/06/29 11:20:51;;;;;;;7.30;3.37;;;;;;;35.63;29.67;98508.09;4364500;32;20110;-74
2022/06/29 11:23:20;;;;;;;6.80;3.30;;;;;;;35.55;28.64;98500.66;4364453;32;20166;-74
2022/06/29 11:25:49;;;;;;;9.63;3.25;;;;;;;35.35;28.26;98499.22;4364430;32;20090;-75
2022/06/29 11:28:17;;;;;;;4.22;2.92;;;;;;;35.12;27.75;98493.72;4364308;32;20087;-75
2022/06/29 11:31:06;;;;;;;4.32;3.22;;;;;;;35.06;28.88;98494.94;4350922;32;20099;-74
2022/06/29 11:33:36;;;;;;;8.15;3.12;;;;;;;35.48;27.92;98497.56;4364455;32;20099;-75
2022/06/29 11:36:08;;;;;;;6.78;2.78;;;;;;;35.40;27.81;98487.41;4364295;32;20149;-74
2022/06/29 11:38:47;;;;;;;4.40;2.92;;;;;;;35.44;27.14;98485.69;4364352;32;20097;-74
2022/06/29 11:43:03;;;;;;;4.82;2.97;;;;;;;35.92;26.80;98487.00;4363436;32;20114;-74
2022/06/29 11:44:31;;;;;;;8.70;3.10;;;;;;;35.86;28.21;98478.16;4364354;32;20095;-75
2022/06/29 11:46:58;;;;;;;3.20;2.90;;;;;;;35.82;27.42;98471.69;4364175;32;20078;-74
2022/06/29 11:49:36;;;;;;;11.12;3.65;;;;;;;35.63;27.43;98474.63;4364095;32;20121;-75
2022/06/29 11:52:06;;;;;;;8.82;2.72;;;;;;;35.74;27.86;98470.50;4352175;32;20091;-74
2022/06/29 11:54:43;;;;;;;5.78;3.45;;;;;;;35.81;28.34;98470.91;4364153;32;20087;-75
2022/06/29 11:57:15;;;;;;;5.65;3.33;;;;;;;36.32;27.21;98462.50;4364052;32;20079;-74
2022/06/29 11:59:44;;;;;;;4.18;3.00;;;;;;;36.48;26.14;98471.88;4364008;32;20075;-74
2022/06/29 12:02:13;;;;;;;7.22;2.87;;;;;;;36.21;26.60;98460.03;4364021;32;20103;-75
2022/06/29 12:04:42;;;;;;;3.25;2.80;;;;;;;36.03;26.42;98461.87;4364007;32;20122;-74
2022/06/29 12:07:12;;;;;;;5.18;2.87;;;;;;;36.37;26.08;98456.94;4363878;32;20473;-75
2022/06/29 12:09:40;;;;;;;4.97;2.70;;;;;;;36.24;25.32;98456.66;4363939;32;20130;-74
2022/06/29 12:12:09;;;;;;;4.53;3.42;;;;;;;35.77;25.32;98450.81;4363604;32;20122;-74
2022/06/29 12:14:40;;;;;;;5.72;2.67;;;;;;;35.76;27.86;98449.19;4364165;32;20125;-75